Time;durP1;ratioP1;P1;durP2;ratioP2;P2;SDS_P1;SDS_P2;PMS_P1;PMS_P2;Temp;Humidity;BMP_temperature;BMP_pressure;BME280_temperature;BME280_humidity;BME280_pressure;Samples;Min_cycle;Max_cycle;Signal;HPM_P1;HPM_P2
2022/08/10 00:00:58;;;;;;;4.80;4.40;;;;;;;12.42;72.37;100924.94;215992;1274;140726;-66
2022/08/10 00:06:03;;;;;;;4.70;4.30;;;;;;;12.34;72.50;100924.86;215798;1273;140480;-65
2022/08/10 00:11:08;;;;;;;6.20;5.60;;;;;;;12.27;72.25;100919.08;216077;1274;141798;-65
2022/08/10 00:16:22;;;;;;;5.10;4.60;;;;;;;12.14;72.30;100914.04;214898;1274;140204;-63
2022/08/10 00:21:27;;;;;;;11.40;4.90;;;;;;;12.12;72.50;100911.38;215742;1274;141606;-65
2022/08/10 00:26:31;;;;;;;5.30;4.20;;;;;;;12.05;72.35;100907.96;213758;1274;141357;-64
2022/08/10 00:31:56;;;;;;;9.20;5.00;;;;;;;12.02;72.62;100907.90;215050;1274;140667;-64
2022/08/10 00:37:02;;;;;;;5.40;5.00;;;;;;;12.09;73.22;100910.04;214544;1273;140108;-63
2022/08/10 00:42:08;;;;;;;5.80;4.70;;;;;;;12.14;73.72;100906.67;214711;1274;140926;-64
2022/08/10 00:47:14;;;;;;;7.00;4.40;;;;;;;12.13;73.03;100906.80;213901;1274;226324;-67
2022/08/10 00:52:39;;;;;;;5.30;4.70;;;;;;;12.05;72.96;100905.58;213318;1274;143062;-64
2022/08/10 00:57:44;;;;;;;5.10;4.30;;;;;;;11.88;73.14;100903.77;213317;1274;140333;-63
2022/08/10 01:02:58;;;;;;;5.30;4.80;;;;;;;11.82;73.31;100907.98;213682;1274;140815;-65
2022/08/10 01:08:39;;;;;;;7.60;4.90;;;;;;;11.84;73.48;100911.60;213556;1272;212689;-64
2022/08/10 01:13:51;;;;;;;3.80;3.50;;;;;;;11.79;73.38;100914.70;213185;1274;142140;-66
2022/08/10 01:19:06;;;;;;;4.90;3.90;;;;;;;11.49;72.68;100911.44;213344;1274;142375;-64
2022/08/10 01:24:44;;;;;;;10.20;4.60;;;;;;;11.16;73.23;100907.38;213447;1274;140947;-64
2022/08/10 01:30:04;;;;;;;;;;;;;;;11.02;74.07;100912.65;213322;1274;142073;-64
2022/08/10 01:35:12;;;;;;;5.30;4.80;;;;;;;11.06;74.31;100909.16;214764;1273;128996;-63
2022/08/10 01:40:24;;;;;;;8.30;5.10;;;;;;;11.06;74.36;100911.90;214297;1274;141448;-63
2022/08/10 01:45:30;;;;;;;13.00;5.40;;;;;;;11.09;74.46;100914.81;213877;1274;1700939;-65
2022/08/10 01:50:52;;;;;;;10.80;4.60;;;;;;;11.11;74.45;100919.33;215538;1274;140691;-63
2022/08/10 01:56:04;;;;;;;5.20;4.70;;;;;;;11.21;74.86;100917.52;215167;1276;141515;-65
2022/08/10 02:01:12;;;;;;;7.40;4.80;;;;;;;11.26;74.57;100910.59;214803;1274;140481;-66
2022/08/10 02:06:24;;;;;;;5.50;5.00;;;;;;;11.08;74.02;100913.00;216238;1274;142076;-65
2022/08/10 02:11:28;;;;;;;5.50;4.30;;;;;;;10.95;74.18;100911.79;215903;1275;140893;-66
2022/08/10 02:16:53;;;;;;;5.80;5.40;;;;;;;10.93;74.37;100913.60;216035;1276;140612;-66
2022/08/10 02:21:58;;;;;;;7.30;5.10;;;;;;;10.93;74.57;100914.90;215969;1274;140157;-64
2022/08/10 02:27:26;;;;;;;5.50;5.00;;;;;;;10.97;74.45;100919.41;214778;1274;140685;-64
2022/08/10 02:32:32;;;;;;;5.70;4.70;;;;;;;10.93;74.32;100922.09;214340;1274;142754;-65
2022/08/10 02:37:45;;;;;;;4.70;4.30;;;;;;;10.83;74.33;100917.74;213446;1274;140204;-66
2022/08/10 02:43:02;;;;;;;4.80;4.50;;;;;;;10.74;74.40;100917.87;214573;1274;141501;-66
2022/08/10 02:48:42;;;;;;;6.40;4.50;;;;;;;10.68;74.70;100913.38;214190;1274;139382;-65
2022/08/10 02:53:55;;;;;;;5.10;4.70;;;;;;;10.60;74.63;100915.68;214620;1273;140758;-64
2022/08/10 02:59:31;;;;;;;8.10;5.10;;;;;;;10.52;74.91;100915.92;214102;1274;143129;-64
2022/08/10 03:04:49;;;;;;;4.90;4.50;;;;;;;10.52;75.09;100912.72;215086;1274;140707;-64
2022/08/10 03:10:03;;;;;;;4.80;4.40;;;;;;;10.55;75.08;100916.09;213697;1274;141342;-64
2022/08/10 03:15:19;;;;;;;5.70;4.70;;;;;;;10.59;75.39;100915.35;213844;1273;140440;-62
2022/08/10 03:20:43;;;;;;;5.00;4.30;;;;;;;10.67;75.48;100918.88;213694;1274;140477;-62
2022/08/10 03:25:53;;;;;;;4.40;4.00;;;;;;;10.58;74.86;100916.55;213425;1274;141080;-64
2022/08/10 03:30:59;;;;;;;8.20;5.80;;;;;;;10.42;74.98;100920.80;214893;1274;140754;-64
2022/08/10 03:36:05;;;;;;;7.50;5.20;;;;;;;10.45;75.62;100919.28;214710;1274;141297;-64
2022/08/10 03:41:59;;;;;;;8.10;5.30;;;;;;;10.51;75.67;100922.41;215047;1274;141557;-64
2022/08/10 03:47:06;;;;;;;5.90;5.20;;;;;;;10.60;75.81;100927.83;214919;1274;141451;-63
2022/08/10 03:52:20;;;;;;;7.40;4.60;;;;;;;10.72;75.68;100928.09;215869;1273;142369;-65
2022/08/10 03:57:25;;;;;;;4.50;4.20;;;;;;;10.80;75.22;100930.23;215104;1274;140868;-62
2022/08/10 04:02:30;;;;;;;4.10;3.80;;;;;;;10.73;74.98;100932.64;215717;1273;139980;-63
2022/08/10 04:07:50;;;;;;;7.90;4.60;;;;;;;10.66;75.17;100931.08;215509;1274;139916;-64
2022/08/10 04:12:55;;;;;;;5.10;4.60;;;;;;;10.80;75.57;100932.77;216080;1274;141227;-65
2022/08/10 04:18:01;;;;;;;6.40;5.10;;;;;;;11.00;75.28;100934.54;216138;1274;141257;-63
2022/08/10 04:23:18;;;;;;;8.50;5.00;;;;;;;11.32;75.61;100937.58;215248;1274;140775;-64
2022/08/10 04:28:24;;;;;;;14.50;5.40;;;;;;;11.72;75.37;100941.46;215609;1273;141290;-64
2022/08/10 04:33:31;;;;;;;17.70;6.80;;;;;;;12.03;75.42;100941.77;214752;1274;141380;-65
2022/08/10 04:38:36;;;;;;;8.80;4.90;;;;;;;12.22;74.82;100938.73;214216;1274;142252;-63
2022/08/10 04:43:41;;;;;;;9.10;6.40;;;;;;;12.42;75.10;100941.47;214543;1274;142274;-64
2022/08/10 04:48:46;;;;;;;6.40;5.90;;;;;;;12.60;75.24;100938.32;213298;1274;141582;-66
2022/08/10 04:54:03;;;;;;;7.10;5.00;;;;;;;12.76;75.47;100943.00;214115;1274;140462;-65
2022/08/10 04:59:12;;;;;;;9.50;6.40;;;;;;;12.95;75.72;100951.59;213089;1274;141720;-64
2022/08/10 05:04:17;;;;;;;7.40;6.70;;;;;;;13.15;75.49;100951.95;213430;1277;141375;-63
2022/08/10 05:09:43;;;;;;;9.90;7.30;;;;;;;13.32;75.88;100953.80;213598;1274;141864;-63
2022/08/10 05:15:12;;;;;;;9.10;7.60;;;;;;;13.50;76.29;100955.52;213531;1274;141097;-64
2022/08/10 05:20:19;;;;;;;11.00;7.70;;;;;;;13.71;76.23;100961.70;214282;1274;142106;-64
2022/08/10 05:25:23;;;;;;;9.20;8.20;;;;;;;14.19;76.26;100964.02;214437;1273;140994;-64
2022/08/10 05:30:28;;;;;;;9.60;8.70;;;;;;;14.98;75.94;100962.92;215039;1274;140757;-64
2022/08/10 05:35:34;;;;;;;10.30;8.30;;;;;;;16.15;74.87;100965.02;213318;1274;140522;-64
2022/08/10 05:40:59;;;;;;;9.50;8.10;;;;;;;19.23;71.79;100962.05;214264;1274;140595;-64
2022/08/10 05:46:03;;;;;;;12.60;7.00;;;;;;;20.79;70.70;100967.98;215183;1274;139894;-63
2022/08/10 05:51:24;;;;;;;7.20;6.50;;;;;;;23.73;65.40;100968.00;215068;1274;140107;-64
2022/08/10 05:56:30;;;;;;;6.80;6.20;;;;;;;25.48;63.44;100975.50;214373;1272;139721;-63
2022/08/10 06:01:59;;;;;;;10.70;5.80;;;;;;;24.77;62.93;100979.75;215838;1274;139971;-62
2022/08/10 06:07:26;;;;;;;7.50;5.80;;;;;;;24.42;61.62;100975.52;216184;1274;140066;-62
2022/08/10 06:12:32;;;;;;;8.10;5.70;;;;;;;23.89;61.56;100976.29;215821;1274;140953;-61
2022/08/10 06:17:59;;;;;;;8.20;5.70;;;;;;;23.21;61.57;100981.77;215189;1273;139930;-62
2022/08/10 06:23:05;;;;;;;8.00;5.50;;;;;;;22.56;62.01;100983.28;215373;1273;140804;-62
2022/08/10 06:28:15;;;;;;;6.90;4.20;;;;;;;22.06;62.33;100986.06;215731;1272;141053;-62
2022/08/10 06:33:22;;;;;;;4.50;3.90;;;;;;;21.75;62.82;100989.14;213944;1274;141162;-63
2022/08/10 06:38:32;;;;;;;7.50;4.20;;;;;;;21.47;62.93;100991.64;214906;1272;141178;-63
2022/08/10 06:43:40;;;;;;;5.60;4.50;;;;;;;21.18;62.94;100997.06;214006;1274;153439;-62
2022/08/10 06:48:54;;;;;;;6.70;3.90;;;;;;;21.05;63.04;100999.80;214705;1274;141225;-65
2022/08/10 06:54:09;;;;;;;6.20;3.20;;;;;;;21.09;62.94;101000.17;214042;1274;141483;-63
2022/08/10 06:59:25;;;;;;;7.00;3.90;;;;;;;21.23;62.82;100997.83;214433;1274;139869;-63
2022/08/10 07:04:39;;;;;;;3.50;3.20;;;;;;;22.08;62.25;100989.62;214266;1274;140121;-64
2022/08/10 07:09:47;;;;;;;7.70;3.30;;;;;;;23.86;61.08;100993.58;214025;1274;140169;-63
2022/08/10 07:14:53;;;;;;;6.30;2.50;;;;;;;25.91;59.41;100993.79;213804;1274;152246;-64
2022/08/10 07:20:00;;;;;;;3.10;2.80;;;;;;;27.15;57.60;100997.27;213917;1274;141324;-64
2022/08/10 07:25:14;;;;;;;3.70;2.20;;;;;;;27.83;55.20;101001.30;214586;1274;224754;-63
2022/08/10 07:30:19;;;;;;;1.90;1.80;;;;;;;28.10;53.35;101002.27;213605;1274;141188;-62
2022/08/10 07:35:26;;;;;;;5.30;2.40;;;;;;;28.25;51.88;100999.21;215029;1274;139870;-63
2022/08/10 07:40:41;;;;;;;3.70;2.40;;;;;;;28.15;50.69;101001.38;213977;1274;141676;-63
2022/08/10 07:45:46;;;;;;;5.30;2.10;;;;;;;27.98;49.74;101000.27;213477;1274;140529;-63
2022/08/10 07:50:56;;;;;;;2.40;2.20;;;;;;;27.92;49.72;100997.48;215660;1274;139448;-64
2022/08/10 07:56:03;;;;;;;2.10;2.00;;;;;;;27.92;49.32;100998.29;215587;1274;139841;-64
2022/08/10 08:01:31;;;;;;;2.40;2.20;;;;;;;27.87;48.66;100994.83;216085;1274;140290;-64
2022/08/10 08:06:37;;;;;;;4.70;2.60;;;;;;;27.75;48.50;100997.59;216277;1274;141566;-64
2022/08/10 08:11:43;;;;;;;2.60;1.70;;;;;;;27.78;48.15;101001.17;216129;1274;141069;-64
2022/08/10 08:16:54;;;;;;;2.60;1.80;;;;;;;27.81;47.99;101002.33;215482;1274;141778;-64
2022/08/10 08:22:00;;;;;;;2.40;1.90;;;;;;;27.74;47.35;101000.98;214714;1274;142699;-64
2022/08/10 08:27:31;;;;;;;2.90;2.00;;;;;;;27.69;46.95;100995.70;213731;1274;143465;-63
2022/08/10 08:32:39;;;;;;;2.10;1.90;;;;;;;27.71;47.12;100996.03;215688;1274;142109;-64
2022/08/10 08:37:46;;;;;;;2.10;1.90;;;;;;;27.62;47.13;100987.08;214139;1272;139755;-64
2022/08/10 08:43:17;;;;;;;2.20;2.10;;;;;;;27.70;46.96;100988.01;214235;1274;140541;-64
2022/08/10 08:48:53;;;;;;;2.00;1.90;;;;;;;27.72;46.35;100983.98;213798;1274;144080;-64
2022/08/10 08:54:11;;;;;;;3.80;1.60;;;;;;;27.73;45.93;100984.85;215194;1273;142553;-63
2022/08/10 08:59:18;;;;;;;1.90;1.80;;;;;;;27.70;44.77;100986.04;214613;1274;140349;-63
2022/08/10 09:04:59;;;;;;;2.20;1.90;;;;;;;27.57;44.64;100984.48;213677;1274;140363;-62
2022/08/10 09:10:17;;;;;;;2.50;1.70;;;;;;;27.44;44.66;100982.20;214286;1274;140496;-62
2022/08/10 09:15:42;;;;;;;1.90;1.70;;;;;;;27.60;45.18;100977.33;214675;1274;140681;-62
2022/08/10 09:21:25;;;;;;;2.30;1.60;;;;;;;27.63;44.85;100976.70;213382;1274;139611;-61
2022/08/10 09:26:42;;;;;;;2.50;1.40;;;;;;;27.74;44.54;100978.83;214379;1274;141415;-62
2022/08/10 09:32:07;;;;;;;1.50;1.40;;;;;;;27.84;44.01;100974.97;213592;1277;140373;-62
2022/08/10 09:37:59;;;;;;;1.10;1.10;;;;;;;27.89;43.91;100974.48;214679;1274;139481;-65
2022/08/10 09:43:10;;;;;;;11.50;1.30;;;;;;;27.45;42.87;100974.84;213637;1274;141633;-62
2022/08/10 09:48:57;;;;;;;3.50;1.60;;;;;;;26.40;42.66;100974.88;215527;1274;140579;-64
2022/08/10 09:54:17;;;;;;;4.10;1.20;;;;;;;26.29;44.21;100965.37;215238;1274;141563;-64
2022/08/10 09:59:30;;;;;;;2.50;1.30;;;;;;;26.42;43.71;100963.75;215160;1274;140212;-66
2022/08/10 10:05:03;;;;;;;1.40;1.20;;;;;;;26.36;43.00;100965.27;215355;1274;140079;-65
2022/08/10 10:10:15;;;;;;;1.30;1.10;;;;;;;26.45;42.58;100956.95;216156;1274;140132;-65
2022/08/10 10:15:58;;;;;;;0.80;0.80;;;;;;;26.90;42.61;100951.43;215210;1274;141165;-64
2022/08/10 10:21:12;;;;;;;1.60;1.50;;;;;;;27.43;42.34;100952.75;214603;1274;140938;-64
2022/08/10 10:26:51;;;;;;;6.50;1.30;;;;;;;27.59;42.19;100952.00;215375;1274;141149;-65
2022/08/10 10:31:57;;;;;;;1.30;1.00;;;;;;;27.09;42.11;100944.90;215136;1274;140064;-64
2022/08/10 10:37:05;;;;;;;1.80;1.30;;;;;;;26.59;42.28;100943.05;214702;1274;141147;-64
2022/08/10 10:42:44;;;;;;;1.80;1.20;;;;;;;26.04;42.30;100945.28;214380;1274;139614;-64
2022/08/10 10:48:17;;;;;;;2.80;1.20;;;;;;;25.71;43.09;100936.21;212999;1274;150471;-63
2022/08/10 10:53:46;;;;;;;1.60;0.90;;;;;;;26.36;43.83;100924.80;213673;1274;139738;-64
2022/08/10 10:59:05;;;;;;;1.40;1.20;;;;;;;26.25;42.37;100925.63;213384;1274;140295;-63
2022/08/10 11:05:08;;;;;;;0.90;0.90;;;;;;;26.54;42.29;100916.05;213341;1274;142050;-64
2022/08/10 11:10:22;;;;;;;3.80;1.40;;;;;;;27.12;41.81;100908.81;214284;1273;140774;-65
2022/08/10 11:15:53;;;;;;;1.40;1.20;;;;;;;27.48;41.18;100912.11;213408;1274;140793;-64
2022/08/10 11:21:14;;;;;;;0.80;0.80;;;;;;;27.80;40.74;100901.98;214359;1272;140589;-64
2022/08/10 11:26:45;;;;;;;1.50;0.80;;;;;;;27.98;39.64;100897.08;214524;1274;140769;-64
2022/08/10 11:32:03;;;;;;;1.00;0.90;;;;;;;27.56;38.91;100899.76;214969;1274;142081;-64
2022/08/10 11:37:21;;;;;;;2.00;1.40;;;;;;;26.96;38.85;100896.55;215252;1274;140829;-64
2022/08/10 11:42:45;;;;;;;1.10;0.80;;;;;;;26.95;38.83;100892.25;213912;1274;141252;-64
2022/08/10 11:48:05;;;;;;;0.60;0.60;;;;;;;27.20;38.71;100887.01;214441;1275;140450;-63
2022/08/10 11:53:18;;;;;;;1.00;0.90;;;;;;;27.58;38.62;100882.89;216074;1274;139825;-64
2022/08/10 12:03:53;;;;;;;1.10;1.10;;;;;;;26.67;39.31;100883.70;213996;1274;140034;-63
2022/08/10 12:08:59;;;;;;;2.80;1.30;;;;;;;26.60;39.46;100878.73;216010;1273;139645;-64
2022/08/10 12:14:42;;;;;;;1.70;1.60;;;;;;;26.49;39.23;100874.88;214572;1274;140963;-65
2022/08/10 12:20:04;;;;;;;4.90;2.00;;;;;;;26.10;39.50;100878.41;216124;1274;139276;-64
2022/08/10 12:25:14;;;;;;;0.90;0.90;;;;;;;26.41;39.86;100873.93;214960;1274;140121;-65
2022/08/10 12:30:45;;;;;;;1.40;1.10;;;;;;;26.71;39.52;100869.04;213526;1274;140360;-63
2022/08/10 12:36:02;;;;;;;1.90;1.30;;;;;;;26.96;39.55;100858.52;213310;1274;140313;-63
2022/08/10 12:41:52;;;;;;;1.70;1.10;;;;;;;27.31;39.81;100853.95;214570;1276;140615;-64
2022/08/10 12:47:43;;;;;;;1.30;1.30;;;;;;;27.70;39.40;100850.13;214559;1274;141290;-64
2022/08/10 12:53:44;;;;;;;1.60;1.50;;;;;;;27.99;38.32;100843.50;214590;1276;140099;-64
2022/08/10 12:58:53;;;;;;;1.30;1.20;;;;;;;27.41;37.78;100847.48;217960;1266;140311;-63
2022/08/10 13:04:15;;;;;;;1.10;1.10;;;;;;;26.69;38.50;100848.08;213474;1276;140738;-64
2022/08/10 13:09:27;;;;;;;1.40;1.10;;;;;;;26.10;38.83;100839.56;213629;1276;140781;-63
2022/08/10 13:14:41;;;;;;;2.90;2.00;;;;;;;25.91;39.00;100835.40;213145;1274;151735;-64
2022/08/10 13:19:49;;;;;;;1.90;1.50;;;;;;;26.02;39.10;100823.86;213304;1277;141034;-64
2022/08/10 13:25:02;;;;;;;1.70;1.20;;;;;;;26.19;39.38;100817.03;214009;1276;139790;-63
2022/08/10 13:30:07;;;;;;;2.10;1.90;;;;;;;26.25;39.21;100812.31;213611;1275;139949;-63
2022/08/10 13:35:16;;;;;;;2.00;1.80;;;;;;;26.64;39.80;100810.99;214942;1275;141004;-64
2022/08/10 13:40:21;;;;;;;2.50;1.90;;;;;;;26.85;38.91;100810.02;216031;1276;140306;-63
2022/08/10 13:45:26;;;;;;;6.80;2.40;;;;;;;26.52;38.70;100814.06;214693;1275;1770308;-63
2022/08/10 13:50:31;;;;;;;3.70;2.30;;;;;;;26.19;38.44;100812.29;215944;1275;141539;-63
2022/08/10 13:55:53;;;;;;;3.20;2.90;;;;;;;25.86;38.64;100813.83;216240;1276;141637;-63
2022/08/10 14:01:07;;;;;;;2.90;2.70;;;;;;;25.62;39.28;100814.05;213993;1276;140696;-63
2022/08/10 14:06:18;;;;;;;3.00;2.90;;;;;;;25.25;39.26;100811.64;213733;1277;141002;-63
2022/08/10 14:11:24;;;;;;;3.00;2.70;;;;;;;24.88;40.15;100808.61;213693;1277;141982;-63
2022/08/10 14:16:29;;;;;;;2.30;2.20;;;;;;;24.59;40.75;100801.48;213261;1277;142612;-64
2022/08/10 14:21:41;;;;;;;3.00;2.80;;;;;;;24.71;40.99;100793.89;213140;1277;142129;-62
2022/08/10 14:26:46;;;;;;;11.90;4.20;;;;;;;24.99;41.07;100783.63;213306;1277;139960;-64
2022/08/10 14:31:51;;;;;;;2.80;2.60;;;;;;;25.25;40.77;100780.06;213059;1277;142778;-64
2022/08/10 14:37:09;;;;;;;2.40;2.20;;;;;;;25.45;40.43;100779.01;213155;1277;141705;-63
2022/08/10 14:42:24;;;;;;;2.20;2.10;;;;;;;25.19;40.06;100781.38;213085;1277;142332;-63
2022/08/10 14:47:40;;;;;;;1.90;1.80;;;;;;;24.91;40.30;100786.34;213166;1277;141737;-63
2022/08/10 14:53:07;;;;;;;2.60;2.40;;;;;;;24.58;40.79;100791.58;213068;1277;140653;-64
2022/08/10 14:58:37;;;;;;;2.40;2.20;;;;;;;24.32;41.43;100789.35;213128;1277;141186;-64
2022/08/10 15:04:10;;;;;;;2.60;1.70;;;;;;;24.08;42.02;100792.52;213041;1278;140911;-64
2022/08/10 15:09:20;;;;;;;2.40;2.20;;;;;;;23.96;42.11;100787.63;213211;1279;140321;-64
2022/08/10 15:14:26;;;;;;;3.60;2.30;;;;;;;23.92;42.50;100778.09;213100;1279;140854;-64
2022/08/10 15:19:51;;;;;;;2.30;2.20;;;;;;;24.01;42.94;100772.88;212908;1278;142541;-64
2022/08/10 15:25:11;;;;;;;6.80;2.40;;;;;;;23.93;42.59;100772.31;213081;1278;140746;-64
2022/08/10 15:56:55;;;;;;;6.50;2.40;;;;;;;23.69;43.08;100750.50;212873;1277;140594;-63
2022/08/10 16:02:11;;;;;;;6.70;3.40;;;;;;;23.72;43.89;100752.03;215226;1277;141392;-64
2022/08/10 16:07:33;;;;;;;27.50;10.20;;;;;;;23.55;43.35;100750.00;213838;1277;140806;-63
2022/08/10 16:13:00;;;;;;;2.00;1.70;;;;;;;23.41;43.25;100748.95;215649;1276;140655;-63
2022/08/10 16:18:27;;;;;;;89.00;30.40;;;;;;;23.42;43.51;100747.64;215836;1276;139682;-64
2022/08/10 16:23:42;;;;;;;4.20;2.80;;;;;;;23.45;44.06;100745.80;215775;1277;141262;-63
2022/08/10 16:28:55;;;;;;;2.20;1.80;;;;;;;23.43;43.79;100739.46;215054;1277;219754;-64
2022/08/10 16:34:07;;;;;;;74.30;21.50;;;;;;;23.40;43.81;100743.80;213817;1276;140066;-64
2022/08/10 16:39:19;;;;;;;18.70;8.70;;;;;;;23.37;44.19;100738.24;213580;1277;141542;-63
2022/08/10 16:45:04;;;;;;;7.60;2.40;;;;;;;23.27;44.50;100734.76;213359;1277;139756;-64
2022/08/10 16:50:09;;;;;;;2.20;2.00;;;;;;;23.15;44.83;100731.08;213288;1277;139847;-64
2022/08/10 16:55:21;;;;;;;2.00;1.80;;;;;;;23.02;45.01;100730.20;213472;1277;142004;-64
2022/08/10 17:00:49;;;;;;;10.80;2.60;;;;;;;22.88;45.10;100735.62;212976;1277;231140;-64
2022/08/10 17:05:59;;;;;;;2.20;1.70;;;;;;;22.71;45.99;100739.39;213003;1277;140251;-64
2022/08/10 17:11:15;;;;;;;2.20;1.60;;;;;;;22.52;45.90;100738.48;213235;1277;141347;-64
2022/08/10 17:16:20;;;;;;;3.00;2.50;;;;;;;22.35;46.20;100734.33;213176;1276;140960;-65
2022/08/10 17:21:30;;;;;;;1.80;1.60;;;;;;;22.14;46.82;100734.29;213015;1277;139765;-64
2022/08/10 17:26:36;;;;;;;2.80;2.00;;;;;;;21.92;47.42;100734.59;213062;1277;140092;-65
2022/08/10 17:31:47;;;;;;;3.20;1.80;;;;;;;21.69;48.19;100731.63;213047;1276;139896;-64
2022/08/10 17:37:04;;;;;;;1.90;1.70;;;;;;;21.45;48.74;100732.37;213019;1277;140261;-63
2022/08/10 17:42:10;;;;;;;4.50;1.50;;;;;;;21.20;49.50;100728.56;212993;1278;142110;-63
2022/08/10 17:47:19;;;;;;;2.00;1.70;;;;;;;20.96;50.18;100723.65;212833;1279;141285;-62
2022/08/10 17:52:28;;;;;;;2.30;2.10;;;;;;;20.68;50.58;100728.88;213308;1277;139755;-65
2022/08/10 17:57:36;;;;;;;2.60;2.40;;;;;;;20.39;51.20;100730.27;213778;1277;139654;-61
2022/08/10 18:02:44;;;;;;;2.80;2.40;;;;;;;20.12;52.13;100735.25;215518;1277;139854;-63
2022/08/10 18:07:51;;;;;;;2.20;2.00;;;;;;;19.85;52.87;100740.59;215866;1277;139983;-65
2022/08/10 18:12:56;;;;;;;3.00;2.30;;;;;;;19.62;53.33;100748.00;215813;1277;139875;-64
2022/08/10 18:18:05;;;;;;;2.10;1.90;;;;;;;19.38;53.61;100746.16;215099;1277;140146;-64
2022/08/10 18:23:12;;;;;;;4.90;1.90;;;;;;;19.12;54.11;100749.57;213849;1274;139941;-67
2022/08/10 18:28:19;;;;;;;4.70;2.20;;;;;;;18.85;54.52;100752.25;213039;1276;139414;-66
2022/08/10 18:33:30;;;;;;;7.30;2.50;;;;;;;18.60;55.01;100752.07;213160;1277;141160;-64
2022/08/10 18:38:36;;;;;;;2.00;1.90;;;;;;;18.31;55.82;100755.63;213091;1277;141259;-65
2022/08/10 18:43:43;;;;;;;;;;;;;;;18.03;56.23;100754.36;213068;1277;140622;-66
2022/08/10 18:49:11;;;;;;;2.50;2.00;;;;;;;17.71;57.07;100751.80;213921;1277;127420;-65
2022/08/10 18:54:28;;;;;;;1.60;1.50;;;;;;;17.35;57.38;100755.37;213214;1277;139696;-63
2022/08/10 19:00:05;;;;;;;1.90;1.80;;;;;;;17.00;58.20;100756.73;213432;1276;140483;-65
2022/08/10 19:05:46;;;;;;;2.40;2.30;;;;;;;16.80;58.89;100757.40;213184;1277;140887;-66
2022/08/10 19:11:15;;;;;;;4.40;2.50;;;;;;;16.60;59.24;100753.90;213434;1277;143077;-65
2022/08/10 19:16:32;;;;;;;2.00;1.90;;;;;;;16.37;59.66;100749.17;212677;1277;141409;-66
2022/08/10 19:21:55;;;;;;;3.20;2.50;;;;;;;16.19;60.38;100758.06;212928;1277;141292;-65
2022/08/10 19:27:11;;;;;;;2.40;2.20;;;;;;;16.14;60.88;100760.70;213022;1277;141134;-64
2022/08/10 19:32:38;;;;;;;3.80;2.50;;;;;;;15.96;61.02;100759.06;213229;1277;230893;-66
2022/08/10 19:38:05;;;;;;;2.10;2.00;;;;;;;15.64;61.41;100761.86;213496;1277;140451;-64
2022/08/10 19:43:31;;;;;;;2.30;1.90;;;;;;;15.38;61.98;100764.08;215687;1277;140700;-67
2022/08/10 19:49:13;;;;;;;2.20;2.00;;;;;;;15.13;62.53;100767.85;215805;1277;141590;-65
2022/08/10 19:54:32;;;;;;;7.00;3.70;;;;;;;15.01;62.94;100766.86;215603;1276;141216;-65
2022/08/10 20:00:00;;;;;;;8.30;4.20;;;;;;;14.99;63.43;100767.89;215696;1277;141911;-64
2022/08/10 20:06:04;;;;;;;12.20;4.50;;;;;;;14.98;63.73;100768.68;215768;1277;141377;-63
2022/08/10 20:11:43;;;;;;;7.90;4.90;;;;;;;15.00;63.99;100772.54;215435;1277;141313;-63
2022/08/10 20:16:57;;;;;;;6.30;3.70;;;;;;;14.89;64.11;100773.23;215519;1277;140361;-64
2022/08/10 20:22:09;;;;;;;16.00;5.10;;;;;;;14.79;64.72;100768.35;214577;1277;139951;-64
2022/08/10 20:27:28;;;;;;;7.80;4.40;;;;;;;14.77;64.72;100765.67;213049;1277;140457;-66
2022/08/10 20:33:11;;;;;;;9.60;4.20;;;;;;;14.53;64.75;100765.97;213210;1277;141155;-65
2022/08/10 20:38:29;;;;;;;5.00;3.30;;;;;;;14.30;65.22;100766.14;212961;1278;139975;-65
2022/08/10 20:43:58;;;;;;;4.60;4.00;;;;;;;14.12;65.76;100764.44;213429;1275;140518;-63
2022/08/10 20:49:38;;;;;;;6.30;3.80;;;;;;;14.10;66.27;100764.53;213179;1277;140886;-66
2022/08/10 20:54:52;;;;;;;8.50;4.00;;;;;;;14.15;66.51;100763.45;213166;1279;209745;-62
2022/08/10 21:00:09;;;;;;;6.50;4.10;;;;;;;14.03;66.54;100765.16;212986;1277;141478;-65
2022/08/10 21:05:41;;;;;;;8.70;4.30;;;;;;;14.00;66.89;100763.04;213088;1277;141434;-64
2022/08/10 21:11:10;;;;;;;5.30;3.70;;;;;;;13.94;66.88;100763.20;212839;1277;140186;-66
2022/08/10 21:16:38;;;;;;;5.10;3.60;;;;;;;13.73;66.80;100759.76;212965;1276;140726;-65
2022/08/10 21:22:12;;;;;;;12.40;4.70;;;;;;;13.67;67.32;100758.20;212934;1276;140260;-64
2022/08/10 23:01:42;;;;;;;7.90;4.60;;;;;;;12.21;70.54;100734.81;213129;1276;142396;-63
2022/08/10 23:07:32;;;;;;;8.30;4.50;;;;;;;12.28;70.75;100736.23;213285;1276;142595;-63
2022/08/10 23:12:48;;;;;;;7.50;4.50;;;;;;;12.29;70.61;100730.88;213328;1276;141244;-65
2022/08/10 23:23:23;;;;;;;7.50;5.10;;;;;;;12.31;70.97;100735.52;213531;1276;141276;-64
2022/08/10 23:28:34;;;;;;;23.80;6.00;;;;;;;12.31;71.02;100740.83;213168;1276;142287;-63
2022/08/10 23:34:01;;;;;;;6.30;3.80;;;;;;;12.22;70.89;100742.36;213395;1276;145458;-63
2022/08/10 23:39:09;;;;;;;6.20;3.90;;;;;;;11.97;70.61;100737.79;213465;1276;207719;-63
2022/08/10 23:44:49;;;;;;;6.90;4.60;;;;;;;11.78;71.01;100739.38;213457;1276;140342;-66
2022/08/10 23:49:57;;;;;;;4.70;4.10;;;;;;;11.67;71.34;100743.58;213881;1276;142298;-62
2022/08/10 23:55:09;;;;;;;5.10;4.20;;;;;;;11.60;71.48;100740.15;214180;1276;142201;-63
